sensor_id;sensor_type;location;lat;lon;timestamp;P1;durP1;ratioP1;P2;durP2;ratioP2
64633;SDS011;51043;52.406;9.690;2023-03-23T00:00:07;4.47;;;1.90;;
64633;SDS011;51043;52.406;9.690;2023-03-23T00:02:35;7.67;;;2.70;;
64633;SDS011;51043;52.406;9.690;2023-03-23T00:05:03;5.27;;;2.43;;
64633;SDS011;51043;52.406;9.690;2023-03-23T00:07:30;5.90;;;2.60;;
64633;SDS011;51043;52.406;9.690;2023-03-23T00:09:55;5.43;;;2.70;;
64633;SDS011;51043;52.406;9.690;2023-03-23T00:12:22;4.83;;;2.57;;
64633;SDS011;51043;52.406;9.690;2023-03-23T00:14:58;6.10;;;2.50;;
64633;SDS011;51043;52.406;9.690;2023-03-23T00:17:26;5.07;;;2.53;;
64633;SDS011;51043;52.406;9.690;2023-03-23T00:19:52;8.80;;;2.77;;
64633;SDS011;51043;52.406;9.690;2023-03-23T00:22:18;6.30;;;2.87;;
64633;SDS011;51043;52.406;9.690;2023-03-23T00:24:46;7.50;;;2.93;;
64633;SDS011;51043;52.406;9.690;2023-03-23T00:27:13;6.77;;;2.73;;
64633;SDS011;51043;52.406;9.690;2023-03-23T00:29:41;6.70;;;2.80;;
64633;SDS011;51043;52.406;9.690;2023-03-23T00:32:08;5.97;;;2.63;;
64633;SDS011;51043;52.406;9.690;2023-03-23T00:34:37;4.03;;;2.93;;
64633;SDS011;51043;52.406;9.690;2023-03-23T00:37:05;4.63;;;2.73;;
64633;SDS011;51043;52.406;9.690;2023-03-23T00:39:32;8.87;;;3.20;;
64633;SDS011;51043;52.406;9.690;2023-03-23T00:41:58;5.60;;;2.80;;
64633;SDS011;51043;52.406;9.690;2023-03-23T00:44:27;5.80;;;2.90;;
64633;SDS011;51043;52.406;9.690;2023-03-23T00:46:59;8.07;;;3.23;;
64633;SDS011;51043;52.406;9.690;2023-03-23T00:49:25;4.63;;;2.70;;
64633;SDS011;51043;52.406;9.690;2023-03-23T00:51:52;6.67;;;3.00;;
64633;SDS011;51043;52.406;9.690;2023-03-23T00:54:22;7.03;;;3.00;;
64633;SDS011;51043;52.406;9.690;2023-03-23T00:56:49;7.33;;;3.17;;
64633;SDS011;51043;52.406;9.690;2023-03-23T00:59:15;5.27;;;2.87;;
64633;SDS011;51043;52.406;9.690;2023-03-23T01:01:43;5.67;;;2.93;;
64633;SDS011;51043;52.406;9.690;2023-03-23T01:04:09;6.40;;;2.97;;
64633;SDS011;51043;52.406;9.690;2023-03-23T01:06:38;5.67;;;2.73;;
64633;SDS011;51043;52.406;9.690;2023-03-23T01:09:06;3.73;;;2.60;;
64633;SDS011;51043;52.406;9.690;2023-03-23T01:11:33;4.83;;;3.00;;
64633;SDS011;51043;52.406;9.690;2023-03-23T01:14:02;3.97;;;2.87;;
64633;SDS011;51043;52.406;9.690;2023-03-23T01:16:28;4.67;;;2.50;;
64633;SDS011;51043;52.406;9.690;2023-03-23T01:18:54;6.33;;;2.63;;
64633;SDS011;51043;52.406;9.690;2023-03-23T01:21:21;9.07;;;2.90;;
64633;SDS011;51043;52.406;9.690;2023-03-23T01:23:47;5.90;;;2.80;;
64633;SDS011;51043;52.406;9.690;2023-03-23T01:26:14;9.07;;;3.20;;
64633;SDS011;51043;52.406;9.690;2023-03-23T01:28:42;11.57;;;3.53;;
64633;SDS011;51043;52.406;9.690;2023-03-23T01:31:09;6.80;;;2.97;;
64633;SDS011;51043;52.406;9.690;2023-03-23T01:33:37;6.70;;;2.87;;
64633;SDS011;51043;52.406;9.690;2023-03-23T01:36:05;5.73;;;3.07;;
64633;SDS011;51043;52.406;9.690;2023-03-23T01:38:37;4.80;;;2.83;;
64633;SDS011;51043;52.406;9.690;2023-03-23T01:41:03;5.37;;;3.43;;
64633;SDS011;51043;52.406;9.690;2023-03-23T01:43:29;5.20;;;3.10;;
64633;SDS011;51043;52.406;9.690;2023-03-23T01:45:55;5.07;;;2.80;;
64633;SDS011;51043;52.406;9.690;2023-03-23T01:48:26;11.27;;;3.27;;
64633;SDS011;51043;52.406;9.690;2023-03-23T01:53:54;7.90;;;3.20;;
64633;SDS011;51043;52.406;9.690;2023-03-23T01:56:28;7.50;;;2.97;;
64633;SDS011;51043;52.406;9.690;2023-03-23T01:59:09;4.27;;;3.00;;
64633;SDS011;51043;52.406;9.690;2023-03-23T02:01:38;4.73;;;2.63;;
64633;SDS011;51043;52.406;9.690;2023-03-23T02:04:09;5.23;;;3.00;;
64633;SDS011;51043;52.406;9.690;2023-03-23T02:06:38;5.33;;;2.60;;
64633;SDS011;51043;52.406;9.690;2023-03-23T02:09:11;4.97;;;2.83;;
64633;SDS011;51043;52.406;9.690;2023-03-23T02:11:39;5.77;;;2.70;;
64633;SDS011;51043;52.406;9.690;2023-03-23T02:14:05;7.03;;;3.23;;
64633;SDS011;51043;52.406;9.690;2023-03-23T02:16:33;7.40;;;2.80;;
64633;SDS011;51043;52.406;9.690;2023-03-23T02:25:38;5.23;;;2.57;;
64633;SDS011;51043;52.406;9.690;2023-03-23T02:33:43;3.47;;;2.03;;
64633;SDS011;51043;52.406;9.690;2023-03-23T02:36:32;3.60;;;1.80;;
64633;SDS011;51043;52.406;9.690;2023-03-23T02:39:29;4.43;;;2.70;;
64633;SDS011;51043;52.406;9.690;2023-03-23T02:42:10;5.83;;;2.70;;
64633;SDS011;51043;52.406;9.690;2023-03-23T02:44:39;4.33;;;2.47;;
64633;SDS011;51043;52.406;9.690;2023-03-23T02:47:11;4.10;;;2.50;;
64633;SDS011;51043;52.406;9.690;2023-03-23T02:49:44;5.70;;;2.60;;
64633;SDS011;51043;52.406;9.690;2023-03-23T02:52:14;4.20;;;2.57;;
64633;SDS011;51043;52.406;9.690;2023-03-23T02:54:46;3.77;;;2.30;;
64633;SDS011;51043;52.406;9.690;2023-03-23T02:57:13;5.17;;;2.50;;
64633;SDS011;51043;52.406;9.690;2023-03-23T02:59:42;4.77;;;2.80;;
64633;SDS011;51043;52.406;9.690;2023-03-23T03:02:12;4.43;;;2.43;;
64633;SDS011;51043;52.406;9.690;2023-03-23T03:04:44;3.60;;;2.47;;
64633;SDS011;51043;52.406;9.690;2023-03-23T03:12:46;6.67;;;2.43;;
64633;SDS011;51043;52.406;9.690;2023-03-23T03:15:32;4.77;;;2.80;;
64633;SDS011;51043;52.406;9.690;2023-03-23T03:18:09;6.13;;;2.80;;
64633;SDS011;51043;52.406;9.690;2023-03-23T03:20:44;5.10;;;2.80;;
64633;SDS011;51043;52.406;9.690;2023-03-23T03:23:14;4.77;;;3.23;;
64633;SDS011;51043;52.406;9.690;2023-03-23T03:25:43;5.60;;;2.80;;
64633;SDS011;51043;52.406;9.690;2023-03-23T03:28:15;5.90;;;2.57;;
64633;SDS011;51043;52.406;9.690;2023-03-23T03:30:44;4.00;;;2.70;;
64633;SDS011;51043;52.406;9.690;2023-03-23T03:33:12;4.57;;;2.60;;
64633;SDS011;51043;52.406;9.690;2023-03-23T03:35:40;6.33;;;2.97;;
64633;SDS011;51043;52.406;9.690;2023-03-23T03:38:08;8.40;;;2.93;;
64633;SDS011;51043;52.406;9.690;2023-03-23T03:40:35;3.87;;;2.50;;
64633;SDS011;51043;52.406;9.690;2023-03-23T03:43:00;5.80;;;2.87;;
64633;SDS011;51043;52.406;9.690;2023-03-23T03:45:27;4.37;;;2.87;;
64633;SDS011;51043;52.406;9.690;2023-03-23T03:47:52;4.57;;;2.60;;
64633;SDS011;51043;52.406;9.690;2023-03-23T03:50:18;2.63;;;2.30;;
64633;SDS011;51043;52.406;9.690;2023-03-23T03:52:44;6.07;;;2.70;;
64633;SDS011;51043;52.406;9.690;2023-03-23T03:55:10;3.00;;;2.30;;
64633;SDS011;51043;52.406;9.690;2023-03-23T03:57:39;3.07;;;2.10;;
64633;SDS011;51043;52.406;9.690;2023-03-23T04:00:20;6.53;;;2.47;;
64633;SDS011;51043;52.406;9.690;2023-03-23T04:02:48;4.03;;;2.20;;
64633;SDS011;51043;52.406;9.690;2023-03-23T04:05:40;5.73;;;2.33;;
64633;SDS011;51043;52.406;9.690;2023-03-23T04:08:07;2.93;;;2.10;;
64633;SDS011;51043;52.406;9.690;2023-03-23T04:10:33;3.87;;;2.50;;
64633;SDS011;51043;52.406;9.690;2023-03-23T04:12:59;2.60;;;1.70;;
64633;SDS011;51043;52.406;9.690;2023-03-23T04:15:50;3.57;;;2.00;;
64633;SDS011;51043;52.406;9.690;2023-03-23T04:18:16;2.80;;;1.80;;
64633;SDS011;51043;52.406;9.690;2023-03-23T04:20:45;4.63;;;2.20;;
64633;SDS011;51043;52.406;9.690;2023-03-23T04:23:16;3.20;;;1.80;;
64633;SDS011;51043;52.406;9.690;2023-03-23T04:25:48;2.27;;;1.80;;
64633;SDS011;51043;52.406;9.690;2023-03-23T04:28:16;4.47;;;1.97;;
64633;SDS011;51043;52.406;9.690;2023-03-23T04:31:03;4.00;;;2.10;;
64633;SDS011;51043;52.406;9.690;2023-03-23T04:33:29;4.33;;;1.90;;
64633;SDS011;51043;52.406;9.690;2023-03-23T04:35:56;3.43;;;2.07;;
64633;SDS011;51043;52.406;9.690;2023-03-23T04:38:36;2.47;;;1.60;;
64633;SDS011;51043;52.406;9.690;2023-03-23T04:41:09;2.73;;;1.80;;
64633;SDS011;51043;52.406;9.690;2023-03-23T04:44:02;3.53;;;2.00;;
64633;SDS011;51043;52.406;9.690;2023-03-23T04:46:44;2.90;;;1.90;;
64633;SDS011;51043;52.406;9.690;2023-03-23T04:49:15;3.40;;;1.77;;
64633;SDS011;51043;52.406;9.690;2023-03-23T04:51:48;4.63;;;1.80;;
64633;SDS011;51043;52.406;9.690;2023-03-23T04:54:40;3.57;;;1.77;;
64633;SDS011;51043;52.406;9.690;2023-03-23T04:57:06;4.80;;;1.70;;
64633;SDS011;51043;52.406;9.690;2023-03-23T04:59:35;3.73;;;1.97;;
64633;SDS011;51043;52.406;9.690;2023-03-23T05:02:11;4.63;;;2.17;;
64633;SDS011;51043;52.406;9.690;2023-03-23T05:04:40;2.63;;;1.80;;
64633;SDS011;51043;52.406;9.690;2023-03-23T05:07:11;3.43;;;2.30;;
64633;SDS011;51043;52.406;9.690;2023-03-23T05:09:46;2.83;;;1.77;;
64633;SDS011;51043;52.406;9.690;2023-03-23T05:12:13;3.00;;;1.80;;
64633;SDS011;51043;52.406;9.690;2023-03-23T05:14:55;3.73;;;2.43;;
64633;SDS011;51043;52.406;9.690;2023-03-23T05:17:24;4.23;;;2.00;;
64633;SDS011;51043;52.406;9.690;2023-03-23T05:19:53;4.87;;;2.10;;
64633;SDS011;51043;52.406;9.690;2023-03-23T05:22:38;3.80;;;2.10;;
64633;SDS011;51043;52.406;9.690;2023-03-23T05:25:06;5.00;;;2.03;;
64633;SDS011;51043;52.406;9.690;2023-03-23T05:27:39;5.97;;;1.93;;
64633;SDS011;51043;52.406;9.690;2023-03-23T05:30:30;2.73;;;1.70;;
64633;SDS011;51043;52.406;9.690;2023-03-23T05:32:57;2.43;;;2.00;;
64633;SDS011;51043;52.406;9.690;2023-03-23T05:35:40;4.87;;;2.10;;
64633;SDS011;51043;52.406;9.690;2023-03-23T05:38:06;1.97;;;1.70;;
64633;SDS011;51043;52.406;9.690;2023-03-23T05:40:32;3.00;;;1.80;;
64633;SDS011;51043;52.406;9.690;2023-03-23T05:43:06;3.60;;;1.90;;
64633;SDS011;51043;52.406;9.690;2023-03-23T05:45:58;3.60;;;1.80;;
64633;SDS011;51043;52.406;9.690;2023-03-23T05:48:25;3.03;;;1.83;;
64633;SDS011;51043;52.406;9.690;2023-03-23T05:50:51;3.17;;;1.90;;
64633;SDS011;51043;52.406;9.690;2023-03-23T05:53:20;2.77;;;1.50;;
64633;SDS011;51043;52.406;9.690;2023-03-23T05:55:46;3.23;;;1.73;;
64633;SDS011;51043;52.406;9.690;2023-03-23T05:58:37;2.80;;;1.80;;
64633;SDS011;51043;52.406;9.690;2023-03-23T06:01:06;2.30;;;1.70;;
64633;SDS011;51043;52.406;9.690;2023-03-23T06:03:32;4.20;;;1.70;;
64633;SDS011;51043;52.406;9.690;2023-03-23T06:06:08;3.57;;;1.70;;
64633;SDS011;51043;52.406;9.690;2023-03-23T06:08:53;3.87;;;1.90;;
64633;SDS011;51043;52.406;9.690;2023-03-23T06:11:32;4.07;;;1.90;;
64633;SDS011;51043;52.406;9.690;2023-03-23T06:14:19;3.80;;;1.90;;
64633;SDS011;51043;52.406;9.690;2023-03-23T06:16:45;8.30;;;2.33;;
64633;SDS011;51043;52.406;9.690;2023-03-23T06:19:13;2.33;;;1.43;;
64633;SDS011;51043;52.406;9.690;2023-03-23T06:21:49;3.10;;;1.80;;
64633;SDS011;51043;52.406;9.690;2023-03-23T06:24:27;3.07;;;1.80;;
64633;SDS011;51043;52.406;9.690;2023-03-23T06:26:53;2.77;;;1.80;;
64633;SDS011;51043;52.406;9.690;2023-03-23T06:29:21;2.30;;;1.63;;
64633;SDS011;51043;52.406;9.690;2023-03-23T06:31:54;2.40;;;1.60;;
64633;SDS011;51043;52.406;9.690;2023-03-23T06:34:25;2.73;;;1.67;;
64633;SDS011;51043;52.406;9.690;2023-03-23T06:37:20;4.93;;;1.87;;
64633;SDS011;51043;52.406;9.690;2023-03-23T06:39:58;2.80;;;1.60;;
64633;SDS011;51043;52.406;9.690;2023-03-23T06:42:30;4.13;;;1.50;;
64633;SDS011;51043;52.406;9.690;2023-03-23T06:45:18;1.70;;;1.40;;
64633;SDS011;51043;52.406;9.690;2023-03-23T06:47:48;2.80;;;1.60;;
64633;SDS011;51043;52.406;9.690;2023-03-23T06:50:17;2.17;;;1.40;;
64633;SDS011;51043;52.406;9.690;2023-03-23T06:52:46;2.33;;;1.57;;
64633;SDS011;51043;52.406;9.690;2023-03-23T06:55:15;2.23;;;1.60;;
64633;SDS011;51043;52.406;9.690;2023-03-23T06:57:42;4.53;;;1.60;;
64633;SDS011;51043;52.406;9.690;2023-03-23T07:00:09;1.83;;;1.60;;
64633;SDS011;51043;52.406;9.690;2023-03-23T07:02:40;2.37;;;1.50;;
64633;SDS011;51043;52.406;9.690;2023-03-23T07:05:08;1.93;;;1.30;;
64633;SDS011;51043;52.406;9.690;2023-03-23T07:07:35;1.80;;;1.57;;
64633;SDS011;51043;52.406;9.690;2023-03-23T07:10:29;1.50;;;1.40;;
64633;SDS011;51043;52.406;9.690;2023-03-23T07:12:55;2.53;;;1.63;;
64633;SDS011;51043;52.406;9.690;2023-03-23T07:15:22;2.50;;;1.60;;
64633;SDS011;51043;52.406;9.690;2023-03-23T07:17:53;6.10;;;1.60;;
64633;SDS011;51043;52.406;9.690;2023-03-23T07:20:28;3.67;;;1.60;;
64633;SDS011;51043;52.406;9.690;2023-03-23T07:22:54;2.77;;;1.70;;
64633;SDS011;51043;52.406;9.690;2023-03-23T07:25:33;1.97;;;1.47;;
64633;SDS011;51043;52.406;9.690;2023-03-23T07:28:00;2.27;;;1.63;;
64633;SDS011;51043;52.406;9.690;2023-03-23T07:30:28;4.10;;;1.70;;
64633;SDS011;51043;52.406;9.690;2023-03-23T07:32:56;4.13;;;1.60;;
64633;SDS011;51043;52.406;9.690;2023-03-23T07:35:22;2.00;;;1.53;;
64633;SDS011;51043;52.406;9.690;2023-03-23T07:37:57;2.50;;;1.40;;
64633;SDS011;51043;52.406;9.690;2023-03-23T07:40:23;1.93;;;1.30;;
64633;SDS011;51043;52.406;9.690;2023-03-23T07:42:52;5.30;;;1.70;;
64633;SDS011;51043;52.406;9.690;2023-03-23T07:45:47;1.83;;;1.50;;
64633;SDS011;51043;52.406;9.690;2023-03-23T07:48:15;4.00;;;1.70;;
64633;SDS011;51043;52.406;9.690;2023-03-23T07:50:40;2.87;;;1.70;;
64633;SDS011;51043;52.406;9.690;2023-03-23T07:53:09;3.43;;;2.00;;
64633;SDS011;51043;52.406;9.690;2023-03-23T07:55:36;4.57;;;1.70;;
64633;SDS011;51043;52.406;9.690;2023-03-23T07:58:06;3.03;;;1.67;;
64633;SDS011;51043;52.406;9.690;2023-03-23T08:00:33;2.55;;;1.55;;
64633;SDS011;51043;52.406;9.690;2023-03-23T08:03:04;5.32;;;1.90;;
64633;SDS011;51043;52.406;9.690;2023-03-23T08:05:35;3.60;;;1.60;;
64633;SDS011;51043;52.406;9.690;2023-03-23T08:08:29;2.07;;;1.63;;
64633;SDS011;51043;52.406;9.690;2023-03-23T08:11:27;2.20;;;1.53;;
64633;SDS011;51043;52.406;9.690;2023-03-23T08:14:12;2.17;;;1.60;;
64633;SDS011;51043;52.406;9.690;2023-03-23T08:16:49;4.53;;;1.90;;
64633;SDS011;51043;52.406;9.690;2023-03-23T08:19:34;2.77;;;1.63;;
64633;SDS011;51043;52.406;9.690;2023-03-23T08:22:34;2.77;;;1.60;;
64633;SDS011;51043;52.406;9.690;2023-03-23T08:25:28;1.73;;;1.40;;
64633;SDS011;51043;52.406;9.690;2023-03-23T08:28:15;5.00;;;2.00;;
64633;SDS011;51043;52.406;9.690;2023-03-23T08:31:00;3.77;;;1.73;;
64633;SDS011;51043;52.406;9.690;2023-03-23T08:33:50;2.90;;;1.63;;
64633;SDS011;51043;52.406;9.690;2023-03-23T08:36:35;5.00;;;2.07;;
64633;SDS011;51043;52.406;9.690;2023-03-23T08:39:17;4.53;;;2.00;;
64633;SDS011;51043;52.406;9.690;2023-03-23T08:42:10;5.13;;;2.10;;
64633;SDS011;51043;52.406;9.690;2023-03-23T08:44:42;6.87;;;2.40;;
64633;SDS011;51043;52.406;9.690;2023-03-23T08:47:38;7.60;;;2.80;;
64633;SDS011;51043;52.406;9.690;2023-03-23T08:50:04;5.50;;;2.10;;
64633;SDS011;51043;52.406;9.690;2023-03-23T08:52:50;4.27;;;1.90;;
64633;SDS011;51043;52.406;9.690;2023-03-23T08:55:46;5.80;;;2.17;;
64633;SDS011;51043;52.406;9.690;2023-03-23T08:58:18;5.50;;;2.20;;
64633;SDS011;51043;52.406;9.690;2023-03-23T09:01:02;8.10;;;2.47;;
64633;SDS011;51043;52.406;9.690;2023-03-23T09:03:42;5.23;;;2.03;;
64633;SDS011;51043;52.406;9.690;2023-03-23T09:06:35;4.50;;;2.10;;
64633;SDS011;51043;52.406;9.690;2023-03-23T09:09:01;2.40;;;1.60;;
64633;SDS011;51043;52.406;9.690;2023-03-23T09:11:32;3.13;;;1.70;;
64633;SDS011;51043;52.406;9.690;2023-03-23T09:13:59;4.03;;;2.17;;
64633;SDS011;51043;52.406;9.690;2023-03-23T09:16:26;4.40;;;2.00;;
64633;SDS011;51043;52.406;9.690;2023-03-23T09:18:53;8.93;;;2.53;;
64633;SDS011;51043;52.406;9.690;2023-03-23T09:21:18;6.90;;;2.70;;
64633;SDS011;51043;52.406;9.690;2023-03-23T09:23:45;1.63;;;1.37;;
64633;SDS011;51043;52.406;9.690;2023-03-23T09:26:11;4.47;;;2.23;;
64633;SDS011;51043;52.406;9.690;2023-03-23T09:28:37;9.20;;;2.57;;
64633;SDS011;51043;52.406;9.690;2023-03-23T09:31:03;7.53;;;2.60;;
64633;SDS011;51043;52.406;9.690;2023-03-23T09:33:29;7.13;;;2.40;;
64633;SDS011;51043;52.406;9.690;2023-03-23T09:35:58;4.87;;;2.10;;
64633;SDS011;51043;52.406;9.690;2023-03-23T09:38:24;6.80;;;2.40;;
64633;SDS011;51043;52.406;9.690;2023-03-23T09:41:00;7.27;;;2.30;;
64633;SDS011;51043;52.406;9.690;2023-03-23T09:44:04;5.73;;;2.50;;
64633;SDS011;51043;52.406;9.690;2023-03-23T09:52:17;2.97;;;1.67;;
64633;SDS011;51043;52.406;9.690;2023-03-23T09:54:51;10.10;;;2.70;;
64633;SDS011;51043;52.406;9.690;2023-03-23T09:57:22;8.70;;;2.60;;
64633;SDS011;51043;52.406;9.690;2023-03-23T10:00:08;4.50;;;2.50;;
64633;SDS011;51043;52.406;9.690;2023-03-23T10:07:58;8.50;;;2.63;;
64633;SDS011;51043;52.406;9.690;2023-03-23T10:10:31;5.73;;;2.50;;
64633;SDS011;51043;52.406;9.690;2023-03-23T10:16:10;7.13;;;2.57;;
64633;SDS011;51043;52.406;9.690;2023-03-23T10:18:43;6.60;;;2.40;;
64633;SDS011;51043;52.406;9.690;2023-03-23T10:21:14;5.23;;;2.20;;
64633;SDS011;51043;52.406;9.690;2023-03-23T10:29:31;10.10;;;2.77;;
64633;SDS011;51043;52.406;9.690;2023-03-23T10:35:12;7.53;;;2.40;;
64633;SDS011;51043;52.406;9.690;2023-03-23T10:37:47;6.33;;;2.30;;
64633;SDS011;51043;52.406;9.690;2023-03-23T10:40:19;7.50;;;2.03;;
64633;SDS011;51043;52.406;9.690;2023-03-23T10:42:49;3.73;;;1.67;;
64633;SDS011;51043;52.406;9.690;2023-03-23T10:47:46;6.13;;;2.33;;
64633;SDS011;51043;52.406;9.690;2023-03-23T10:50:22;6.77;;;2.77;;
64633;SDS011;51043;52.406;9.690;2023-03-23T10:53:16;7.90;;;2.50;;
64633;SDS011;51043;52.406;9.690;2023-03-23T10:55:45;7.33;;;2.57;;
64633;SDS011;51043;52.406;9.690;2023-03-23T10:58:26;5.63;;;2.17;;
64633;SDS011;51043;52.406;9.690;2023-03-23T11:00:54;3.72;;;1.73;;
64633;SDS011;51043;52.406;9.690;2023-03-23T11:03:25;6.22;;;1.98;;
64633;SDS011;51043;52.406;9.690;2023-03-23T11:05:59;5.10;;;1.90;;
64633;SDS011;51043;52.406;9.690;2023-03-23T11:08:31;6.30;;;2.23;;
64633;SDS011;51043;52.406;9.690;2023-03-23T11:13:43;6.10;;;2.20;;
64633;SDS011;51043;52.406;9.690;2023-03-23T11:16:27;7.15;;;2.25;;
64633;SDS011;51043;52.406;9.690;2023-03-23T11:18:59;6.72;;;2.70;;
64633;SDS011;51043;52.406;9.690;2023-03-23T11:21:36;7.55;;;2.72;;
64633;SDS011;51043;52.406;9.690;2023-03-23T11:24:03;4.53;;;1.90;;
64633;SDS011;51043;52.406;9.690;2023-03-23T11:26:31;7.22;;;2.50;;
64633;SDS011;51043;52.406;9.690;2023-03-23T11:29:03;4.40;;;2.03;;
64633;SDS011;51043;52.406;9.690;2023-03-23T11:31:33;6.43;;;2.50;;
64633;SDS011;51043;52.406;9.690;2023-03-23T11:34:02;6.73;;;2.37;;
64633;SDS011;51043;52.406;9.690;2023-03-23T11:36:37;7.00;;;2.72;;
64633;SDS011;51043;52.406;9.690;2023-03-23T11:39:22;8.35;;;2.70;;
64633;SDS011;51043;52.406;9.690;2023-03-23T11:41:51;4.50;;;2.07;;
64633;SDS011;51043;52.406;9.690;2023-03-23T11:44:20;8.37;;;2.73;;
64633;SDS011;51043;52.406;9.690;2023-03-23T11:49:50;6.30;;;2.85;;
64633;SDS011;51043;52.406;9.690;2023-03-23T11:52:29;7.72;;;2.53;;
64633;SDS011;51043;52.406;9.690;2023-03-23T11:55:13;6.53;;;2.47;;
64633;SDS011;51043;52.406;9.690;2023-03-23T11:57:43;9.23;;;2.20;;
64633;SDS011;51043;52.406;9.690;2023-03-23T12:00:16;10.13;;;2.80;;
64633;SDS011;51043;52.406;9.690;2023-03-23T12:02:52;10.82;;;2.90;;
64633;SDS011;51043;52.406;9.690;2023-03-23T12:05:49;8.27;;;2.83;;
64633;SDS011;51043;52.406;9.690;2023-03-23T12:08:20;6.13;;;2.53;;
64633;SDS011;51043;52.406;9.690;2023-03-23T12:11:52;8.20;;;3.03;;
64633;SDS011;51043;52.406;9.690;2023-03-23T12:34:27;3.23;;;1.40;;
64633;SDS011;51043;52.406;9.690;2023-03-23T12:37:20;5.67;;;2.53;;
64633;SDS011;51043;52.406;9.690;2023-03-23T12:45:58;4.43;;;2.17;;
64633;SDS011;51043;52.406;9.690;2023-03-23T12:48:52;4.17;;;1.77;;
64633;SDS011;51043;52.406;9.690;2023-03-23T12:54:15;4.27;;;1.50;;
64633;SDS011;51043;52.406;9.690;2023-03-23T12:57:32;3.63;;;1.80;;
64633;SDS011;51043;52.406;9.690;2023-03-23T13:03:09;2.00;;;1.50;;
64633;SDS011;51043;52.406;9.690;2023-03-23T13:05:44;3.73;;;1.40;;
64633;SDS011;51043;52.406;9.690;2023-03-23T13:08:54;3.00;;;1.70;;
64633;SDS011;51043;52.406;9.690;2023-03-23T13:11:28;3.33;;;1.60;;
64633;SDS011;51043;52.406;9.690;2023-03-23T13:14:03;2.33;;;1.20;;
64633;SDS011;51043;52.406;9.690;2023-03-23T13:19:28;1.63;;;0.90;;
64633;SDS011;51043;52.406;9.690;2023-03-23T13:24:30;1.37;;;1.20;;
64633;SDS011;51043;52.406;9.690;2023-03-23T13:26:59;3.83;;;1.47;;
64633;SDS011;51043;52.406;9.690;2023-03-23T13:29:26;1.83;;;1.10;;
64633;SDS011;51043;52.406;9.690;2023-03-23T13:32:10;1.60;;;1.30;;
64633;SDS011;51043;52.406;9.690;2023-03-23T13:34:40;2.03;;;1.20;;
64633;SDS011;51043;52.406;9.690;2023-03-23T13:37:10;2.00;;;1.30;;
64633;SDS011;51043;52.406;9.690;2023-03-23T13:42:19;2.50;;;1.40;;
64633;SDS011;51043;52.406;9.690;2023-03-23T13:50:11;1.73;;;1.20;;
64633;SDS011;51043;52.406;9.690;2023-03-23T13:52:54;2.90;;;1.10;;
64633;SDS011;51043;52.406;9.690;2023-03-23T13:55:30;2.17;;;1.00;;
64633;SDS011;51043;52.406;9.690;2023-03-23T14:05:36;1.77;;;1.20;;
64633;SDS011;51043;52.406;9.690;2023-03-23T14:10:42;3.17;;;1.23;;
64633;SDS011;51043;52.406;9.690;2023-03-23T14:13:18;2.27;;;1.13;;
64633;SDS011;51043;52.406;9.690;2023-03-23T14:16:03;3.17;;;1.10;;
64633;SDS011;51043;52.406;9.690;2023-03-23T14:18:39;2.00;;;1.00;;
64633;SDS011;51043;52.406;9.690;2023-03-23T14:21:14;2.23;;;1.20;;
64633;SDS011;51043;52.406;9.690;2023-03-23T14:23:41;3.13;;;1.20;;
64633;SDS011;51043;52.406;9.690;2023-03-23T14:26:17;1.67;;;1.07;;
64633;SDS011;51043;52.406;9.690;2023-03-23T14:28:45;3.17;;;1.20;;
64633;SDS011;51043;52.406;9.690;2023-03-23T14:31:20;1.67;;;1.07;;
64633;SDS011;51043;52.406;9.690;2023-03-23T14:33:51;1.47;;;1.00;;
64633;SDS011;51043;52.406;9.690;2023-03-23T14:36:26;1.93;;;1.00;;
64633;SDS011;51043;52.406;9.690;2023-03-23T14:41:31;1.87;;;1.23;;
64633;SDS011;51043;52.406;9.690;2023-03-23T14:43:59;3.30;;;1.50;;
64633;SDS011;51043;52.406;9.690;2023-03-23T14:46:27;3.03;;;1.37;;
64633;SDS011;51043;52.406;9.690;2023-03-23T14:48:54;4.33;;;1.53;;
64633;SDS011;51043;52.406;9.690;2023-03-23T14:51:20;2.17;;;1.13;;
64633;SDS011;51043;52.406;9.690;2023-03-23T14:53:46;1.93;;;1.20;;
64633;SDS011;51043;52.406;9.690;2023-03-23T14:56:19;2.03;;;1.40;;
64633;SDS011;51043;52.406;9.690;2023-03-23T14:58:49;3.20;;;1.30;;
64633;SDS011;51043;52.406;9.690;2023-03-23T15:01:19;3.70;;;1.50;;
64633;SDS011;51043;52.406;9.690;2023-03-23T15:04:01;2.53;;;1.60;;
64633;SDS011;51043;52.406;9.690;2023-03-23T15:06:28;3.00;;;1.30;;
64633;SDS011;51043;52.406;9.690;2023-03-23T15:08:57;4.80;;;1.50;;
64633;SDS011;51043;52.406;9.690;2023-03-23T15:11:33;2.63;;;1.30;;
64633;SDS011;51043;52.406;9.690;2023-03-23T15:14:08;1.30;;;1.20;;
64633;SDS011;51043;52.406;9.690;2023-03-23T15:16:52;3.33;;;1.40;;
64633;SDS011;51043;52.406;9.690;2023-03-23T15:19:21;3.47;;;1.40;;
64633;SDS011;51043;52.406;9.690;2023-03-23T15:22:05;1.60;;;1.00;;
64633;SDS011;51043;52.406;9.690;2023-03-23T15:24:40;2.97;;;1.27;;
64633;SDS011;51043;52.406;9.690;2023-03-23T15:29:46;4.63;;;1.30;;
64633;SDS011;51043;52.406;9.690;2023-03-23T15:32:13;1.80;;;1.20;;
64633;SDS011;51043;52.406;9.690;2023-03-23T15:34:49;4.77;;;1.60;;
64633;SDS011;51043;52.406;9.690;2023-03-23T15:37:38;2.57;;;1.40;;
64633;SDS011;51043;52.406;9.690;2023-03-23T15:40:13;4.50;;;1.67;;
64633;SDS011;51043;52.406;9.690;2023-03-23T15:42:44;1.70;;;1.30;;
64633;SDS011;51043;52.406;9.690;2023-03-23T15:50:31;3.43;;;1.67;;
64633;SDS011;51043;52.406;9.690;2023-03-23T15:52:59;3.17;;;1.40;;
64633;SDS011;51043;52.406;9.690;2023-03-23T15:55:37;2.53;;;1.70;;
64633;SDS011;51043;52.406;9.690;2023-03-23T15:58:10;2.23;;;1.47;;
64633;SDS011;51043;52.406;9.690;2023-03-23T16:00:39;4.83;;;1.50;;
64633;SDS011;51043;52.406;9.690;2023-03-23T16:03:07;3.90;;;1.50;;
64633;SDS011;51043;52.406;9.690;2023-03-23T16:05:38;2.97;;;1.40;;
64633;SDS011;51043;52.406;9.690;2023-03-23T16:08:07;2.77;;;1.60;;
64633;SDS011;51043;52.406;9.690;2023-03-23T16:10:40;1.30;;;1.20;;
64633;SDS011;51043;52.406;9.690;2023-03-23T16:13:08;2.67;;;1.40;;
64633;SDS011;51043;52.406;9.690;2023-03-23T16:15:35;5.03;;;1.60;;
64633;SDS011;51043;52.406;9.690;2023-03-23T16:18:02;3.50;;;1.80;;
64633;SDS011;51043;52.406;9.690;2023-03-23T16:20:29;2.93;;;1.60;;
64633;SDS011;51043;52.406;9.690;2023-03-23T16:22:58;2.33;;;1.80;;
64633;SDS011;51043;52.406;9.690;2023-03-23T16:25:26;2.43;;;1.70;;
64633;SDS011;51043;52.406;9.690;2023-03-23T16:27:52;3.50;;;1.80;;
64633;SDS011;51043;52.406;9.690;2023-03-23T16:30:21;3.47;;;1.53;;
64633;SDS011;51043;52.406;9.690;2023-03-23T16:32:49;2.57;;;1.50;;
64633;SDS011;51043;52.406;9.690;2023-03-23T16:35:17;3.33;;;1.60;;
64633;SDS011;51043;52.406;9.690;2023-03-23T16:37:45;4.20;;;1.80;;
64633;SDS011;51043;52.406;9.690;2023-03-23T16:40:14;4.20;;;1.80;;
64633;SDS011;51043;52.406;9.690;2023-03-23T16:42:42;4.27;;;1.90;;
64633;SDS011;51043;52.406;9.690;2023-03-23T16:45:09;2.77;;;1.90;;
64633;SDS011;51043;52.406;9.690;2023-03-23T16:47:37;5.57;;;2.07;;
64633;SDS011;51043;52.406;9.690;2023-03-23T16:50:06;3.47;;;1.60;;
64633;SDS011;51043;52.406;9.690;2023-03-23T16:52:37;3.93;;;1.50;;
64633;SDS011;51043;52.406;9.690;2023-03-23T16:55:06;4.30;;;1.90;;
64633;SDS011;51043;52.406;9.690;2023-03-23T16:57:34;3.83;;;1.67;;
64633;SDS011;51043;52.406;9.690;2023-03-23T17:00:03;3.13;;;1.67;;
64633;SDS011;51043;52.406;9.690;2023-03-23T17:02:33;4.00;;;1.80;;
64633;SDS011;51043;52.406;9.690;2023-03-23T17:05:00;7.50;;;2.10;;
64633;SDS011;51043;52.406;9.690;2023-03-23T17:07:27;4.90;;;1.77;;
64633;SDS011;51043;52.406;9.690;2023-03-23T17:09:54;5.30;;;1.97;;
64633;SDS011;51043;52.406;9.690;2023-03-23T17:12:21;5.60;;;2.10;;
64633;SDS011;51043;52.406;9.690;2023-03-23T17:14:47;2.70;;;1.87;;
64633;SDS011;51043;52.406;9.690;2023-03-23T17:17:14;5.13;;;2.43;;
64633;SDS011;51043;52.406;9.690;2023-03-23T17:19:41;5.83;;;1.93;;